sensor_id;sensor_type;location;lat;lon;timestamp;temperature;humidity
28763;DHT22;15918;51.270;6.522;2023-04-25T00:01:04;12.80;59.70
28763;DHT22;15918;51.270;6.522;2023-04-25T00:03:34;12.80;59.70
28763;DHT22;15918;51.270;6.522;2023-04-25T00:06:00;12.80;59.80
28763;DHT22;15918;51.270;6.522;2023-04-25T00:08:28;12.80;59.80
28763;DHT22;15918;51.270;6.522;2023-04-25T00:10:53;12.80;59.90
28763;DHT22;15918;51.270;6.522;2023-04-25T00:13:19;12.80;59.90
28763;DHT22;15918;51.270;6.522;2023-04-25T00:15:45;12.80;59.90
28763;DHT22;15918;51.270;6.522;2023-04-25T00:18:11;12.80;60.00
28763;DHT22;15918;51.270;6.522;2023-04-25T00:20:37;12.80;60.00
28763;DHT22;15918;51.270;6.522;2023-04-25T00:23:03;12.80;60.00
28763;DHT22;15918;51.270;6.522;2023-04-25T00:25:28;12.80;60.10
28763;DHT22;15918;51.270;6.522;2023-04-25T00:27:55;12.80;60.10
28763;DHT22;15918;51.270;6.522;2023-04-25T00:30:20;12.80;60.10
28763;DHT22;15918;51.270;6.522;2023-04-25T00:32:46;12.80;60.20
28763;DHT22;15918;51.270;6.522;2023-04-25T00:35:11;12.80;61.00
28763;DHT22;15918;51.270;6.522;2023-04-25T00:37:37;12.80;60.30
28763;DHT22;15918;51.270;6.522;2023-04-25T00:40:06;12.80;60.30
28763;DHT22;15918;51.270;6.522;2023-04-25T00:42:32;12.80;60.40
28763;DHT22;15918;51.270;6.522;2023-04-25T00:44:59;12.80;60.40
28763;DHT22;15918;51.270;6.522;2023-04-25T00:47:25;12.80;60.40
28763;DHT22;15918;51.270;6.522;2023-04-25T00:49:51;12.70;60.40
28763;DHT22;15918;51.270;6.522;2023-04-25T00:52:19;12.80;60.40
28763;DHT22;15918;51.270;6.522;2023-04-25T00:54:44;12.80;60.50
28763;DHT22;15918;51.270;6.522;2023-04-25T00:57:10;12.70;60.40
28763;DHT22;15918;51.270;6.522;2023-04-25T00:59:36;12.70;60.40
28763;DHT22;15918;51.270;6.522;2023-04-25T01:02:03;12.70;60.40
28763;DHT22;15918;51.270;6.522;2023-04-25T01:04:29;12.70;60.40
28763;DHT22;15918;51.270;6.522;2023-04-25T01:06:55;12.70;60.40
28763;DHT22;15918;51.270;6.522;2023-04-25T01:09:21;12.70;60.50
28763;DHT22;15918;51.270;6.522;2023-04-25T01:11:48;12.70;60.60
28763;DHT22;15918;51.270;6.522;2023-04-25T01:14:13;12.70;60.60
28763;DHT22;15918;51.270;6.522;2023-04-25T01:16:39;12.70;60.50
28763;DHT22;15918;51.270;6.522;2023-04-25T01:19:09;12.70;61.40
28763;DHT22;15918;51.270;6.522;2023-04-25T01:21:38;12.70;60.70
28763;DHT22;15918;51.270;6.522;2023-04-25T01:24:04;12.60;60.70
28763;DHT22;15918;51.270;6.522;2023-04-25T01:26:30;12.70;60.80
28763;DHT22;15918;51.270;6.522;2023-04-25T01:28:56;12.60;60.70
28763;DHT22;15918;51.270;6.522;2023-04-25T01:31:23;12.70;60.80
28763;DHT22;15918;51.270;6.522;2023-04-25T01:33:49;12.70;60.80
28763;DHT22;15918;51.270;6.522;2023-04-25T01:36:15;12.60;60.70
28763;DHT22;15918;51.270;6.522;2023-04-25T01:38:41;12.60;60.80
28763;DHT22;15918;51.270;6.522;2023-04-25T01:41:07;12.70;60.80
28763;DHT22;15918;51.270;6.522;2023-04-25T01:43:32;12.70;60.90
28763;DHT22;15918;51.270;6.522;2023-04-25T01:45:58;12.70;60.90
28763;DHT22;15918;51.270;6.522;2023-04-25T01:48:24;12.70;61.00
28763;DHT22;15918;51.270;6.522;2023-04-25T01:50:50;12.70;61.00
28763;DHT22;15918;51.270;6.522;2023-04-25T01:53:16;12.70;61.00
28763;DHT22;15918;51.270;6.522;2023-04-25T01:55:42;12.70;61.00
28763;DHT22;15918;51.270;6.522;2023-04-25T01:58:08;12.70;61.00
28763;DHT22;15918;51.270;6.522;2023-04-25T02:00:38;12.70;61.00
28763;DHT22;15918;51.270;6.522;2023-04-25T02:03:05;12.70;61.00
28763;DHT22;15918;51.270;6.522;2023-04-25T02:05:37;12.70;61.10
28763;DHT22;15918;51.270;6.522;2023-04-25T02:08:05;12.60;61.00
28763;DHT22;15918;51.270;6.522;2023-04-25T02:10:31;12.60;61.00
28763;DHT22;15918;51.270;6.522;2023-04-25T02:12:57;12.60;61.00
28763;DHT22;15918;51.270;6.522;2023-04-25T02:15:23;12.60;61.00
28763;DHT22;15918;51.270;6.522;2023-04-25T02:17:49;12.70;61.10
28763;DHT22;15918;51.270;6.522;2023-04-25T02:20:15;12.70;61.10
28763;DHT22;15918;51.270;6.522;2023-04-25T02:22:41;12.70;61.00
28763;DHT22;15918;51.270;6.522;2023-04-25T02:25:08;12.70;61.10
28763;DHT22;15918;51.270;6.522;2023-04-25T02:27:34;12.70;61.10
28763;DHT22;15918;51.270;6.522;2023-04-25T02:30:00;12.70;61.10
28763;DHT22;15918;51.270;6.522;2023-04-25T02:32:26;12.70;61.20
28763;DHT22;15918;51.270;6.522;2023-04-25T02:34:52;12.70;61.20
28763;DHT22;15918;51.270;6.522;2023-04-25T02:37:18;12.60;61.00
28763;DHT22;15918;51.270;6.522;2023-04-25T02:39:43;12.60;61.00
28763;DHT22;15918;51.270;6.522;2023-04-25T02:42:09;12.70;61.20
28763;DHT22;15918;51.270;6.522;2023-04-25T02:44:34;12.70;61.20
28763;DHT22;15918;51.270;6.522;2023-04-25T02:47:00;12.60;61.10
28763;DHT22;15918;51.270;6.522;2023-04-25T02:49:25;12.60;61.10
28763;DHT22;15918;51.270;6.522;2023-04-25T02:51:51;12.60;61.10
28763;DHT22;15918;51.270;6.522;2023-04-25T02:54:17;12.60;61.10
28763;DHT22;15918;51.270;6.522;2023-04-25T02:56:42;12.60;61.10
28763;DHT22;15918;51.270;6.522;2023-04-25T02:59:08;12.60;61.20
28763;DHT22;15918;51.270;6.522;2023-04-25T03:01:33;12.70;61.20
28763;DHT22;15918;51.270;6.522;2023-04-25T03:03:59;12.60;61.20
28763;DHT22;15918;51.270;6.522;2023-04-25T03:06:24;12.60;61.20
28763;DHT22;15918;51.270;6.522;2023-04-25T03:08:50;12.60;61.20
28763;DHT22;15918;51.270;6.522;2023-04-25T03:11:16;12.60;61.20
28763;DHT22;15918;51.270;6.522;2023-04-25T03:13:41;12.60;61.20
28763;DHT22;15918;51.270;6.522;2023-04-25T03:16:07;12.60;61.30
28763;DHT22;15918;51.270;6.522;2023-04-25T03:18:32;12.60;61.30
28763;DHT22;15918;51.270;6.522;2023-04-25T03:20:58;12.60;61.30
28763;DHT22;15918;51.270;6.522;2023-04-25T03:23:24;12.60;61.20
28763;DHT22;15918;51.270;6.522;2023-04-25T03:25:49;12.60;61.30
28763;DHT22;15918;51.270;6.522;2023-04-25T03:28:15;12.60;61.30
28763;DHT22;15918;51.270;6.522;2023-04-25T03:30:41;12.60;61.30
28763;DHT22;15918;51.270;6.522;2023-04-25T03:33:06;12.60;61.30
28763;DHT22;15918;51.270;6.522;2023-04-25T03:35:32;12.60;61.30
28763;DHT22;15918;51.270;6.522;2023-04-25T03:37:58;12.60;61.30
28763;DHT22;15918;51.270;6.522;2023-04-25T03:40:23;12.60;61.30
28763;DHT22;15918;51.270;6.522;2023-04-25T03:42:49;12.50;61.20
28763;DHT22;15918;51.270;6.522;2023-04-25T03:45:15;12.50;61.50
28763;DHT22;15918;51.270;6.522;2023-04-25T03:47:40;12.60;61.40
28763;DHT22;15918;51.270;6.522;2023-04-25T03:50:06;12.50;61.30
28763;DHT22;15918;51.270;6.522;2023-04-25T03:52:32;12.50;62.10
28763;DHT22;15918;51.270;6.522;2023-04-25T03:54:57;12.50;61.30
28763;DHT22;15918;51.270;6.522;2023-04-25T03:57:23;12.50;61.30
28763;DHT22;15918;51.270;6.522;2023-04-25T03:59:49;12.50;61.30
28763;DHT22;15918;51.270;6.522;2023-04-25T04:02:15;12.50;61.30
28763;DHT22;15918;51.270;6.522;2023-04-25T04:04:40;12.50;61.30
28763;DHT22;15918;51.270;6.522;2023-04-25T04:07:06;12.50;61.30
28763;DHT22;15918;51.270;6.522;2023-04-25T04:09:31;12.50;61.30
28763;DHT22;15918;51.270;6.522;2023-04-25T04:11:57;12.50;61.30
28763;DHT22;15918;51.270;6.522;2023-04-25T04:14:22;12.50;61.30
28763;DHT22;15918;51.270;6.522;2023-04-25T04:16:48;12.50;61.30
28763;DHT22;15918;51.270;6.522;2023-04-25T04:19:14;12.40;61.20
28763;DHT22;15918;51.270;6.522;2023-04-25T04:21:40;12.50;61.30
28763;DHT22;15918;51.270;6.522;2023-04-25T04:24:05;12.50;61.30
28763;DHT22;15918;51.270;6.522;2023-04-25T04:26:32;12.40;61.20
28763;DHT22;15918;51.270;6.522;2023-04-25T04:28:58;12.40;61.30
28763;DHT22;15918;51.270;6.522;2023-04-25T04:31:24;12.40;61.30
28763;DHT22;15918;51.270;6.522;2023-04-25T04:33:50;12.40;61.20
28763;DHT22;15918;51.270;6.522;2023-04-25T04:36:16;12.40;61.20
28763;DHT22;15918;51.270;6.522;2023-04-25T04:38:45;12.40;61.30
28763;DHT22;15918;51.270;6.522;2023-04-25T04:41:10;12.40;61.20
28763;DHT22;15918;51.270;6.522;2023-04-25T04:43:36;12.40;61.20
28763;DHT22;15918;51.270;6.522;2023-04-25T04:46:02;12.40;61.30
28763;DHT22;15918;51.270;6.522;2023-04-25T04:48:31;12.40;61.20
28763;DHT22;15918;51.270;6.522;2023-04-25T04:50:58;12.40;61.30
28763;DHT22;15918;51.270;6.522;2023-04-25T04:53:24;12.40;61.20
28763;DHT22;15918;51.270;6.522;2023-04-25T04:55:50;12.40;61.30
28763;DHT22;15918;51.270;6.522;2023-04-25T04:58:15;12.40;61.30
28763;DHT22;15918;51.270;6.522;2023-04-25T05:00:41;12.40;61.40
28763;DHT22;15918;51.270;6.522;2023-04-25T05:03:06;12.30;61.30
28763;DHT22;15918;51.270;6.522;2023-04-25T05:05:32;12.40;61.40
28763;DHT22;15918;51.270;6.522;2023-04-25T05:07:58;12.30;61.40
28763;DHT22;15918;51.270;6.522;2023-04-25T05:10:24;12.30;61.40
28763;DHT22;15918;51.270;6.522;2023-04-25T05:12:49;12.30;61.40
28763;DHT22;15918;51.270;6.522;2023-04-25T05:15:15;12.30;61.40
28763;DHT22;15918;51.270;6.522;2023-04-25T05:17:40;12.30;61.40
28763;DHT22;15918;51.270;6.522;2023-04-25T05:20:07;12.30;61.50
28763;DHT22;15918;51.270;6.522;2023-04-25T05:22:34;12.30;61.50
28763;DHT22;15918;51.270;6.522;2023-04-25T05:25:00;12.30;61.50
28763;DHT22;15918;51.270;6.522;2023-04-25T05:27:26;12.30;61.50
28763;DHT22;15918;51.270;6.522;2023-04-25T05:29:52;12.30;61.60
28763;DHT22;15918;51.270;6.522;2023-04-25T05:32:18;12.30;61.70
28763;DHT22;15918;51.270;6.522;2023-04-25T05:34:43;12.40;61.70
28763;DHT22;15918;51.270;6.522;2023-04-25T05:37:09;12.40;61.70
28763;DHT22;15918;51.270;6.522;2023-04-25T05:39:35;12.40;61.80
28763;DHT22;15918;51.270;6.522;2023-04-25T05:42:01;12.40;61.70
28763;DHT22;15918;51.270;6.522;2023-04-25T05:44:26;12.40;61.80
28763;DHT22;15918;51.270;6.522;2023-04-25T05:46:52;12.50;61.80
28763;DHT22;15918;51.270;6.522;2023-04-25T05:49:18;12.40;61.80
28763;DHT22;15918;51.270;6.522;2023-04-25T05:51:43;12.40;61.80
28763;DHT22;15918;51.270;6.522;2023-04-25T05:54:09;12.40;61.80
28763;DHT22;15918;51.270;6.522;2023-04-25T05:56:35;12.40;61.80
28763;DHT22;15918;51.270;6.522;2023-04-25T05:59:00;12.40;61.70
28763;DHT22;15918;51.270;6.522;2023-04-25T06:01:26;12.40;62.50
28763;DHT22;15918;51.270;6.522;2023-04-25T06:03:52;12.40;61.70
28763;DHT22;15918;51.270;6.522;2023-04-25T06:06:18;12.40;61.70
28763;DHT22;15918;51.270;6.522;2023-04-25T06:08:44;12.40;61.70
28763;DHT22;15918;51.270;6.522;2023-04-25T06:11:10;12.50;61.70
28763;DHT22;15918;51.270;6.522;2023-04-25T06:13:35;12.50;61.60
28763;DHT22;15918;51.270;6.522;2023-04-25T06:16:01;12.50;61.50
28763;DHT22;15918;51.270;6.522;2023-04-25T06:18:27;12.50;61.50
28763;DHT22;15918;51.270;6.522;2023-04-25T06:20:52;12.50;61.50
28763;DHT22;15918;51.270;6.522;2023-04-25T06:23:18;12.50;61.50
28763;DHT22;15918;51.270;6.522;2023-04-25T06:25:44;12.50;61.50
28763;DHT22;15918;51.270;6.522;2023-04-25T06:28:09;12.50;61.30
28763;DHT22;15918;51.270;6.522;2023-04-25T06:30:35;12.50;61.20
28763;DHT22;15918;51.270;6.522;2023-04-25T06:33:00;12.50;61.10
28763;DHT22;15918;51.270;6.522;2023-04-25T06:35:26;12.50;61.10
28763;DHT22;15918;51.270;6.522;2023-04-25T06:37:51;12.60;61.10
28763;DHT22;15918;51.270;6.522;2023-04-25T06:40:17;12.60;61.10
28763;DHT22;15918;51.270;6.522;2023-04-25T06:42:43;12.60;61.00
28763;DHT22;15918;51.270;6.522;2023-04-25T06:45:09;12.60;61.10
28763;DHT22;15918;51.270;6.522;2023-04-25T06:47:35;12.70;61.20
28763;DHT22;15918;51.270;6.522;2023-04-25T06:50:00;12.70;61.10
28763;DHT22;15918;51.270;6.522;2023-04-25T06:52:26;12.70;61.10
28763;DHT22;15918;51.270;6.522;2023-04-25T06:54:51;12.70;61.00
28763;DHT22;15918;51.270;6.522;2023-04-25T06:57:17;12.70;60.80
28763;DHT22;15918;51.270;6.522;2023-04-25T06:59:42;12.70;60.70
28763;DHT22;15918;51.270;6.522;2023-04-25T07:02:08;12.80;60.70
28763;DHT22;15918;51.270;6.522;2023-04-25T07:04:34;12.80;60.70
28763;DHT22;15918;51.270;6.522;2023-04-25T07:06:59;12.80;60.60
28763;DHT22;15918;51.270;6.522;2023-04-25T07:09:28;12.80;60.60
28763;DHT22;15918;51.270;6.522;2023-04-25T07:11:53;12.80;60.50
28763;DHT22;15918;51.270;6.522;2023-04-25T07:14:19;12.90;60.40
28763;DHT22;15918;51.270;6.522;2023-04-25T07:16:44;12.90;60.40
28763;DHT22;15918;51.270;6.522;2023-04-25T07:19:10;12.90;60.40
28763;DHT22;15918;51.270;6.522;2023-04-25T07:21:35;12.90;60.30
28763;DHT22;15918;51.270;6.522;2023-04-25T07:24:01;13.00;60.20
28763;DHT22;15918;51.270;6.522;2023-04-25T07:26:27;13.00;60.10
28763;DHT22;15918;51.270;6.522;2023-04-25T07:28:53;13.00;59.90
28763;DHT22;15918;51.270;6.522;2023-04-25T07:31:20;13.10;59.90
28763;DHT22;15918;51.270;6.522;2023-04-25T07:33:45;13.10;59.80
28763;DHT22;15918;51.270;6.522;2023-04-25T07:36:12;13.10;59.70
28763;DHT22;15918;51.270;6.522;2023-04-25T07:38:38;13.10;59.60
28763;DHT22;15918;51.270;6.522;2023-04-25T07:41:04;13.10;59.60
28763;DHT22;15918;51.270;6.522;2023-04-25T07:43:29;13.10;59.50
28763;DHT22;15918;51.270;6.522;2023-04-25T07:45:56;13.20;59.40
28763;DHT22;15918;51.270;6.522;2023-04-25T07:48:22;13.10;59.40
28763;DHT22;15918;51.270;6.522;2023-04-25T07:50:47;13.20;59.40
28763;DHT22;15918;51.270;6.522;2023-04-25T07:53:13;13.20;59.40
28763;DHT22;15918;51.270;6.522;2023-04-25T07:55:39;13.20;59.50
28763;DHT22;15918;51.270;6.522;2023-04-25T07:58:08;13.20;59.40
28763;DHT22;15918;51.270;6.522;2023-04-25T08:00:35;13.30;59.50
28763;DHT22;15918;51.270;6.522;2023-04-25T08:03:01;13.30;59.40
28763;DHT22;15918;51.270;6.522;2023-04-25T08:05:26;13.30;59.20
28763;DHT22;15918;51.270;6.522;2023-04-25T08:07:52;13.30;59.00
28763;DHT22;15918;51.270;6.522;2023-04-25T08:10:18;13.40;59.00
28763;DHT22;15918;51.270;6.522;2023-04-25T08:12:43;13.30;58.80
28763;DHT22;15918;51.270;6.522;2023-04-25T08:15:09;13.30;58.70
28763;DHT22;15918;51.270;6.522;2023-04-25T08:17:35;13.40;58.60
28763;DHT22;15918;51.270;6.522;2023-04-25T08:20:01;13.40;58.50
28763;DHT22;15918;51.270;6.522;2023-04-25T08:22:29;13.40;58.40
28763;DHT22;15918;51.270;6.522;2023-04-25T08:24:55;13.40;58.30
28763;DHT22;15918;51.270;6.522;2023-04-25T08:27:21;13.40;58.30
28763;DHT22;15918;51.270;6.522;2023-04-25T08:29:46;13.40;58.20
28763;DHT22;15918;51.270;6.522;2023-04-25T08:32:12;13.40;58.10
28763;DHT22;15918;51.270;6.522;2023-04-25T08:34:37;13.40;58.10
28763;DHT22;15918;51.270;6.522;2023-04-25T08:37:07;13.50;58.00
28763;DHT22;15918;51.270;6.522;2023-04-25T08:39:33;13.50;57.80
28763;DHT22;15918;51.270;6.522;2023-04-25T08:42:00;13.50;57.60
28763;DHT22;15918;51.270;6.522;2023-04-25T08:44:26;13.50;57.40
28763;DHT22;15918;51.270;6.522;2023-04-25T08:46:52;13.50;57.30
28763;DHT22;15918;51.270;6.522;2023-04-25T08:49:18;13.50;57.20
28763;DHT22;15918;51.270;6.522;2023-04-25T08:51:45;13.50;57.20
28763;DHT22;15918;51.270;6.522;2023-04-25T08:54:13;13.50;57.10
28763;DHT22;15918;51.270;6.522;2023-04-25T08:56:41;13.60;57.20
28763;DHT22;15918;51.270;6.522;2023-04-25T08:59:09;13.60;57.20
28763;DHT22;15918;51.270;6.522;2023-04-25T09:01:35;13.60;57.20
28763;DHT22;15918;51.270;6.522;2023-04-25T09:04:01;13.60;56.80
28763;DHT22;15918;51.270;6.522;2023-04-25T09:06:29;13.60;56.50
28763;DHT22;15918;51.270;6.522;2023-04-25T09:09:04;13.60;56.10
28763;DHT22;15918;51.270;6.522;2023-04-25T09:11:30;13.60;55.60
28763;DHT22;15918;51.270;6.522;2023-04-25T09:14:17;13.60;55.70
28763;DHT22;15918;51.270;6.522;2023-04-25T09:19:25;13.50;56.30
28763;DHT22;15918;51.270;6.522;2023-04-25T09:21:54;13.50;56.50
28763;DHT22;15918;51.270;6.522;2023-04-25T09:27:12;13.60;56.20
28763;DHT22;15918;51.270;6.522;2023-04-25T09:29:39;13.50;56.30
28763;DHT22;15918;51.270;6.522;2023-04-25T09:34:43;13.60;56.20
28763;DHT22;15918;51.270;6.522;2023-04-25T09:37:12;13.60;56.10
28763;DHT22;15918;51.270;6.522;2023-04-25T09:39:38;13.60;56.10
28763;DHT22;15918;51.270;6.522;2023-04-25T09:42:05;13.60;56.00
28763;DHT22;15918;51.270;6.522;2023-04-25T09:44:31;13.60;55.90
28763;DHT22;15918;51.270;6.522;2023-04-25T09:46:57;13.60;55.90
28763;DHT22;15918;51.270;6.522;2023-04-25T09:49:23;13.70;55.90
28763;DHT22;15918;51.270;6.522;2023-04-25T09:51:58;13.60;55.70
28763;DHT22;15918;51.270;6.522;2023-04-25T09:54:25;13.70;55.70
28763;DHT22;15918;51.270;6.522;2023-04-25T09:56:52;13.70;55.70
28763;DHT22;15918;51.270;6.522;2023-04-25T09:59:21;13.70;55.60
28763;DHT22;15918;51.270;6.522;2023-04-25T10:01:50;13.70;55.90
28763;DHT22;15918;51.270;6.522;2023-04-25T10:04:24;13.70;55.40
28763;DHT22;15918;51.270;6.522;2023-04-25T10:06:52;13.70;55.30
28763;DHT22;15918;51.270;6.522;2023-04-25T10:09:20;13.70;55.40
28763;DHT22;15918;51.270;6.522;2023-04-25T10:11:46;13.70;55.30
28763;DHT22;15918;51.270;6.522;2023-04-25T10:14:16;13.70;55.20
28763;DHT22;15918;51.270;6.522;2023-04-25T10:16:42;13.70;55.20
28763;DHT22;15918;51.270;6.522;2023-04-25T10:19:09;13.70;55.20
28763;DHT22;15918;51.270;6.522;2023-04-25T10:21:42;13.70;55.30
28763;DHT22;15918;51.270;6.522;2023-04-25T10:24:09;13.80;55.40
28763;DHT22;15918;51.270;6.522;2023-04-25T10:26:35;13.80;55.50
28763;DHT22;15918;51.270;6.522;2023-04-25T10:29:03;13.80;55.50
28763;DHT22;15918;51.270;6.522;2023-04-25T10:31:32;13.80;55.50
28763;DHT22;15918;51.270;6.522;2023-04-25T10:33:59;13.80;56.00
28763;DHT22;15918;51.270;6.522;2023-04-25T10:36:25;13.80;55.40
28763;DHT22;15918;51.270;6.522;2023-04-25T10:38:52;13.80;55.40
28763;DHT22;15918;51.270;6.522;2023-04-25T10:41:20;13.80;55.50
28763;DHT22;15918;51.270;6.522;2023-04-25T10:43:47;13.80;55.40
28763;DHT22;15918;51.270;6.522;2023-04-25T10:46:17;13.80;55.30
28763;DHT22;15918;51.270;6.522;2023-04-25T10:48:55;13.80;55.30
28763;DHT22;15918;51.270;6.522;2023-04-25T10:53:48;13.90;55.30
28763;DHT22;15918;51.270;6.522;2023-04-25T10:59:14;13.90;55.10
28763;DHT22;15918;51.270;6.522;2023-04-25T11:01:47;14.00;55.10
28763;DHT22;15918;51.270;6.522;2023-04-25T11:04:31;14.00;55.20
28763;DHT22;15918;51.270;6.522;2023-04-25T11:09:36;14.00;55.20
28763;DHT22;15918;51.270;6.522;2023-04-25T11:12:03;14.00;55.10
28763;DHT22;15918;51.270;6.522;2023-04-25T11:14:29;14.00;55.00
28763;DHT22;15918;51.270;6.522;2023-04-25T11:16:55;14.10;54.90
28763;DHT22;15918;51.270;6.522;2023-04-25T11:19:22;14.10;54.70
28763;DHT22;15918;51.270;6.522;2023-04-25T11:21:47;14.10;54.70
28763;DHT22;15918;51.270;6.522;2023-04-25T11:24:13;14.10;54.50
28763;DHT22;15918;51.270;6.522;2023-04-25T11:26:41;14.10;54.50
28763;DHT22;15918;51.270;6.522;2023-04-25T11:29:07;14.10;55.10
28763;DHT22;15918;51.270;6.522;2023-04-25T11:31:33;14.20;54.50
28763;DHT22;15918;51.270;6.522;2023-04-25T11:33:59;14.20;54.50
28763;DHT22;15918;51.270;6.522;2023-04-25T11:36:26;14.20;54.50
28763;DHT22;15918;51.270;6.522;2023-04-25T11:38:52;14.10;54.40
28763;DHT22;15918;51.270;6.522;2023-04-25T11:41:19;14.20;54.40
28763;DHT22;15918;51.270;6.522;2023-04-25T11:43:45;14.20;54.30
28763;DHT22;15918;51.270;6.522;2023-04-25T11:46:11;14.20;54.20
28763;DHT22;15918;51.270;6.522;2023-04-25T11:48:38;14.20;54.20
28763;DHT22;15918;51.270;6.522;2023-04-25T11:51:04;14.20;54.00
28763;DHT22;15918;51.270;6.522;2023-04-25T11:53:30;14.20;53.90
28763;DHT22;15918;51.270;6.522;2023-04-25T11:55:55;14.20;53.90
28763;DHT22;15918;51.270;6.522;2023-04-25T11:58:21;14.20;54.10
28763;DHT22;15918;51.270;6.522;2023-04-25T12:00:47;14.20;53.90
28763;DHT22;15918;51.270;6.522;2023-04-25T12:03:13;14.20;53.80
28763;DHT22;15918;51.270;6.522;2023-04-25T12:05:38;14.20;53.80
28763;DHT22;15918;51.270;6.522;2023-04-25T12:08:15;14.20;53.80
28763;DHT22;15918;51.270;6.522;2023-04-25T12:10:43;14.20;53.70
28763;DHT22;15918;51.270;6.522;2023-04-25T12:13:22;14.20;54.00
28763;DHT22;15918;51.270;6.522;2023-04-25T12:15:48;14.20;53.90
28763;DHT22;15918;51.270;6.522;2023-04-25T12:18:18;14.20;53.70
28763;DHT22;15918;51.270;6.522;2023-04-25T12:20:44;14.10;53.50
28763;DHT22;15918;51.270;6.522;2023-04-25T12:23:10;14.10;53.40
28763;DHT22;15918;51.270;6.522;2023-04-25T12:25:41;14.30;53.30
28763;DHT22;15918;51.270;6.522;2023-04-25T12:30:59;14.20;52.80
28763;DHT22;15918;51.270;6.522;2023-04-25T12:33:27;14.30;52.70
28763;DHT22;15918;51.270;6.522;2023-04-25T12:35:53;14.20;52.80
28763;DHT22;15918;51.270;6.522;2023-04-25T12:40:48;14.30;52.60
28763;DHT22;15918;51.270;6.522;2023-04-25T12:43:13;14.20;52.40
28763;DHT22;15918;51.270;6.522;2023-04-25T12:45:39;14.30;52.30
28763;DHT22;15918;51.270;6.522;2023-04-25T12:48:05;14.30;52.20
28763;DHT22;15918;51.270;6.522;2023-04-25T12:50:31;14.30;52.20
28763;DHT22;15918;51.270;6.522;2023-04-25T12:52:57;14.30;52.20
28763;DHT22;15918;51.270;6.522;2023-04-25T12:55:22;14.30;52.20
28763;DHT22;15918;51.270;6.522;2023-04-25T12:57:48;14.40;52.30
28763;DHT22;15918;51.270;6.522;2023-04-25T13:00:14;14.30;52.20
28763;DHT22;15918;51.270;6.522;2023-04-25T13:02:40;14.40;52.10
28763;DHT22;15918;51.270;6.522;2023-04-25T13:05:06;14.40;52.00
28763;DHT22;15918;51.270;6.522;2023-04-25T13:07:32;14.40;51.80
28763;DHT22;15918;51.270;6.522;2023-04-25T13:09:58;14.30;51.80
28763;DHT22;15918;51.270;6.522;2023-04-25T13:12:24;14.40;51.70
28763;DHT22;15918;51.270;6.522;2023-04-25T13:14:49;14.40;51.60
28763;DHT22;15918;51.270;6.522;2023-04-25T13:17:15;14.40;51.50
28763;DHT22;15918;51.270;6.522;2023-04-25T13:19:41;14.40;51.40
28763;DHT22;15918;51.270;6.522;2023-04-25T13:22:06;14.40;51.40
28763;DHT22;15918;51.270;6.522;2023-04-25T13:24:32;14.30;51.30
28763;DHT22;15918;51.270;6.522;2023-04-25T13:26:57;14.30;51.30
28763;DHT22;15918;51.270;6.522;2023-04-25T13:29:23;14.30;51.30
28763;DHT22;15918;51.270;6.522;2023-04-25T13:31:48;14.40;51.30
28763;DHT22;15918;51.270;6.522;2023-04-25T13:34:14;14.40;51.40
28763;DHT22;15918;51.270;6.522;2023-04-25T13:36:40;14.40;51.50
28763;DHT22;15918;51.270;6.522;2023-04-25T13:39:05;14.30;51.50
28763;DHT22;15918;51.270;6.522;2023-04-25T13:41:31;14.30;51.50
28763;DHT22;15918;51.270;6.522;2023-04-25T13:43:57;14.30;51.60
28763;DHT22;15918;51.270;6.522;2023-04-25T13:46:24;14.30;51.60
28763;DHT22;15918;51.270;6.522;2023-04-25T13:48:50;14.30;51.60
28763;DHT22;15918;51.270;6.522;2023-04-25T13:51:15;14.30;51.70
28763;DHT22;15918;51.270;6.522;2023-04-25T13:53:42;14.30;51.70
28763;DHT22;15918;51.270;6.522;2023-04-25T13:56:08;14.30;51.70
28763;DHT22;15918;51.270;6.522;2023-04-25T13:58:34;14.30;51.80
28763;DHT22;15918;51.270;6.522;2023-04-25T14:00:59;14.30;52.00
28763;DHT22;15918;51.270;6.522;2023-04-25T14:03:25;14.30;52.10
28763;DHT22;15918;51.270;6.522;2023-04-25T14:05:51;14.30;52.10
28763;DHT22;15918;51.270;6.522;2023-04-25T14:08:16;14.30;52.10
28763;DHT22;15918;51.270;6.522;2023-04-25T14:10:42;14.30;52.10
28763;DHT22;15918;51.270;6.522;2023-04-25T14:13:07;14.30;52.20
28763;DHT22;15918;51.270;6.522;2023-04-25T14:15:34;14.30;52.30
28763;DHT22;15918;51.270;6.522;2023-04-25T14:18:00;14.30;52.30
28763;DHT22;15918;51.270;6.522;2023-04-25T14:20:26;14.30;52.30
28763;DHT22;15918;51.270;6.522;2023-04-25T14:22:52;14.30;52.30
28763;DHT22;15918;51.270;6.522;2023-04-25T14:25:20;14.30;52.30
28763;DHT22;15918;51.270;6.522;2023-04-25T14:27:46;14.30;52.20
28763;DHT22;15918;51.270;6.522;2023-04-25T14:30:15;14.40;52.20
28763;DHT22;15918;51.270;6.522;2023-04-25T14:32:41;14.30;52.10
28763;DHT22;15918;51.270;6.522;2023-04-25T14:35:07;14.40;52.20
28763;DHT22;15918;51.270;6.522;2023-04-25T14:37:33;14.30;52.10
28763;DHT22;15918;51.270;6.522;2023-04-25T14:39:59;14.30;52.10
28763;DHT22;15918;51.270;6.522;2023-04-25T14:42:24;14.30;52.10
28763;DHT22;15918;51.270;6.522;2023-04-25T14:44:50;14.40;52.10
28763;DHT22;15918;51.270;6.522;2023-04-25T14:47:16;14.30;52.00
28763;DHT22;15918;51.270;6.522;2023-04-25T14:49:42;14.30;51.90
28763;DHT22;15918;51.270;6.522;2023-04-25T14:52:07;14.30;52.50
28763;DHT22;15918;51.270;6.522;2023-04-25T14:54:33;14.40;51.90
28763;DHT22;15918;51.270;6.522;2023-04-25T14:56:58;14.30;51.70
28763;DHT22;15918;51.270;6.522;2023-04-25T14:59:24;14.30;51.60
28763;DHT22;15918;51.270;6.522;2023-04-25T15:01:50;14.30;51.60
28763;DHT22;15918;51.270;6.522;2023-04-25T15:04:16;14.40;51.70
28763;DHT22;15918;51.270;6.522;2023-04-25T15:06:42;14.30;51.70
28763;DHT22;15918;51.270;6.522;2023-04-25T15:09:08;14.30;51.60
28763;DHT22;15918;51.270;6.522;2023-04-25T15:11:36;14.30;51.50
28763;DHT22;15918;51.270;6.522;2023-04-25T15:14:02;14.30;51.50
28763;DHT22;15918;51.270;6.522;2023-04-25T15:16:27;14.40;51.60
28763;DHT22;15918;51.270;6.522;2023-04-25T15:18:53;14.40;51.50
28763;DHT22;15918;51.270;6.522;2023-04-25T15:21:18;14.30;51.50
28763;DHT22;15918;51.270;6.522;2023-04-25T15:23:44;14.30;51.50
28763;DHT22;15918;51.270;6.522;2023-04-25T15:26:10;14.30;51.60
28763;DHT22;15918;51.270;6.522;2023-04-25T15:28:36;14.30;51.50
28763;DHT22;15918;51.270;6.522;2023-04-25T15:31:01;14.30;51.40
28763;DHT22;15918;51.270;6.522;2023-04-25T15:33:27;14.30;51.40
28763;DHT22;15918;51.270;6.522;2023-04-25T15:35:53;14.30;51.40
28763;DHT22;15918;51.270;6.522;2023-04-25T15:38:18;14.30;51.40
28763;DHT22;15918;51.270;6.522;2023-04-25T15:40:44;14.30;51.20
28763;DHT22;15918;51.270;6.522;2023-04-25T15:43:10;14.30;51.10
28763;DHT22;15918;51.270;6.522;2023-04-25T15:45:40;14.30;51.00